Wetterstation Vordersexau
Wetterdaten: Woche 16.11.15 - 22.11.15 (KW47)
Datum Zeit Temp. A. Feuchte A. Luftdruck Regen Wind Richtung Taupunkt Windchill Windben
16.11.2015 00:00 7,4 C 83 % 1018,1 hPa 0,0 l/m 1,9 km/h N-NO 4,7 C 7,4 C 1,1 km/h
16.11.2015 01:00 6,5 C 84 % 1017,8 hPa 0,0 l/m 0,0 km/h SO 4,0 C 6,5 C 0,0 km/h
16.11.2015 02:00 5,9 C 84 % 1017,7 hPa 0,0 l/m 0,0 km/h O-SO 3,4 C 5,9 C 0,0 km/h
16.11.2015 03:00 5,6 C 85 % 1017,3 hPa 0,0 l/m 0,0 km/h O-SO 3,3 C 5,6 C 0,0 km/h
16.11.2015 04:00 5,3 C 86 % 1017,1 hPa 0,0 l/m 0,0 km/h O-SO 3,2 C 5,3 C 0,0 km/h
16.11.2015 05:00 5,3 C 87 % 1016,5 hPa 0,0 l/m 0,0 km/h O-SO 3,3 C 5,3 C 0,0 km/h
16.11.2015 06:00 5,6 C 87 % 1016,4 hPa 0,0 l/m 0,0 km/h N-NO 3,6 C 5,6 C 0,0 km/h
16.11.2015 07:00 5,7 C 86 % 1016,3 hPa 0,0 l/m 5,8 km/h O-SO 3,5 C 5,7 C 3,2 km/h
16.11.2015 08:00 7,0 C 85 % 1016,7 hPa 0,0 l/m 0,0 km/h N-NO 4,7 C 7,0 C 0,0 km/h
16.11.2015 09:00 12,7 C 77 % 1016,6 hPa 0,0 l/m 5,8 km/h SW 8,8 C 12,7 C 3,2 km/h
16.11.2015 10:00 19,3 C 51 % 1016,8 hPa 0,0 l/m 10,4 km/h W 8,9 C 17,7 C 5,8 km/h
16.11.2015 11:00 21,4 C 35 % 1016,8 hPa 0,0 l/m 24,0 km/h W-SW 5,3 C 17,4 C 13,3 km/h
16.11.2015 12:00 19,9 C 30 % 1016,4 hPa 0,0 l/m 22,7 km/h W 1,8 C 15,6 C 12,6 km/h
16.11.2015 13:00 20,4 C 31 % 1016,0 hPa 0,0 l/m 16,2 km/h W 2,7 C 17,5 C 9,0 km/h
16.11.2015 14:00 21,1 C 33 % 1015,6 hPa 0,0 l/m 16,8 km/h W-SW 4,2 C 18,2 C 9,4 km/h
16.11.2015 15:00 19,3 C 37 % 1016,0 hPa 0,0 l/m 25,3 km/h W 4,2 C 14,4 C 14,0 km/h
16.11.2015 16:00 15,3 C 46 % 1016,0 hPa 0,0 l/m 22,7 km/h N-NW 3,8 C 9,5 C 12,6 km/h
16.11.2015 17:00 12,8 C 54 % 1016,3 hPa 0,0 l/m 0,0 km/h W 3,7 C 12,8 C 0,0 km/h
16.11.2015 18:00 11,8 C 61 % 1016,6 hPa 0,0 l/m 6,5 km/h SW 4,5 C 11,8 C 3,6 km/h
16.11.2015 19:00 11,3 C 66 % 1017,5 hPa 0,0 l/m 15,6 km/h W-SW 5,2 C 6,5 C 8,6 km/h
16.11.2015 20:00 10,9 C 69 % 1017,5 hPa 0,0 l/m 14,9 km/h W 5,4 C 6,3 C 8,3 km/h
16.11.2015 21:00 10,9 C 72 % 1017,8 hPa 0,0 l/m 17,5 km/h W-SW 6,1 C 5,3 C 9,7 km/h
16.11.2015 22:00 10,4 C 75 % 1017,8 hPa 0,0 l/m 23,3 km/h S-SW 6,2 C 2,8 C 13,0 km/h
16.11.2015 23:00 10,2 C 76 % 1018,0 hPa 0,0 l/m 14,9 km/h SW 6,2 C 5,4 C 8,3 km/h
17.11.2015 00:00 10,8 C 75 % 1017,6 hPa 0,0 l/m 12,3 km/h S-SW 6,5 C 7,3 C 6,8 km/h
17.11.2015 01:00 10,9 C 75 % 1016,8 hPa 0,0 l/m 0,0 km/h W 6,6 C 10,9 C 0,0 km/h
17.11.2015 02:00 11,4 C 75 % 1016,6 hPa 0,0 l/m 29,8 km/h SW 7,1 C 2,7 C 16,6 km/h
17.11.2015 03:00 11,6 C 76 % 1016,6 hPa 0,0 l/m 16,2 km/h SW 7,5 C 6,6 C 9,0 km/h
17.11.2015 04:00 11,9 C 75 % 1016,6 hPa 0,0 l/m 22,0 km/h SW 7,6 C 5,2 C 12,2 km/h
17.11.2015 05:00 12,3 C 75 % 1015,7 hPa 0,0 l/m 4,5 km/h S-SW 8,0 C 12,3 C 2,5 km/h
17.11.2015 06:00 12,9 C 74 % 1016,2 hPa 0,0 l/m 7,1 km/h SW 8,4 C 12,5 C 4,0 km/h
17.11.2015 07:00 13,3 C 73 % 1016,0 hPa 0,0 l/m 24,0 km/h W-SW 8,6 C 6,5 C 13,3 km/h
17.11.2015 08:00 13,7 C 72 % 1016,0 hPa 0,0 l/m 3,2 km/h W-SW 8,7 C 13,7 C 1,8 km/h
17.11.2015 09:00 13,0 C 77 % 1015,9 hPa 0,0 l/m 18,8 km/h W 9,1 C 7,5 C 10,4 km/h
17.11.2015 10:00 13,6 C 76 % 1016,1 hPa 0,0 l/m 22,0 km/h W-SW 9,4 C 7,4 C 12,2 km/h
17.11.2015 11:00 14,3 C 78 % 1016,2 hPa 0,0 l/m 18,8 km/h W-SW 10,5 C 9,2 C 10,4 km/h
17.11.2015 12:00 15,3 C 75 % 1016,2 hPa 0,0 l/m 33,0 km/h W-SW 10,9 C 7,6 C 18,4 km/h
17.11.2015 13:00 15,4 C 75 % 1015,7 hPa 0,0 l/m 37,6 km/h W-SW 11,0 C 7,2 C 20,9 km/h
17.11.2015 14:00 14,6 C 77 % 1015,8 hPa 0,0 l/m 20,7 km/h W 10,6 C 9,1 C 11,5 km/h
17.11.2015 15:00 14,8 C 77 % 1015,4 hPa 0,0 l/m 31,8 km/h W 10,8 C 7,1 C 17,6 km/h
17.11.2015 16:00 14,8 C 77 % 1015,9 hPa 0,0 l/m 24,6 km/h W-SW 10,8 C 8,4 C 13,7 km/h
17.11.2015 17:00 14,8 C 77 % 1015,6 hPa 0,0 l/m 5,8 km/h W-SW 10,8 C 14,8 C 3,2 km/h
17.11.2015 18:00 14,9 C 76 % 1016,0 hPa 0,0 l/m 31,1 km/h SW 10,7 C 7,4 C 17,3 km/h
17.11.2015 19:00 15,1 C 76 % 1015,8 hPa 0,0 l/m 17,5 km/h SW 10,9 C 10,5 C 9,7 km/h
17.11.2015 20:00 15,4 C 74 % 1015,9 hPa 0,0 l/m 33,7 km/h SW 10,8 C 7,7 C 18,7 km/h
17.11.2015 21:00 15,6 C 73 % 1015,6 hPa 0,0 l/m 22,0 km/h SW 10,8 C 10,1 C 12,2 km/h
17.11.2015 22:00 15,9 C 72 % 1015,1 hPa 0,0 l/m 38,2 km/h W-SW 10,9 C 7,8 C 21,2 km/h
17.11.2015 23:00 15,6 C 77 % 1015,2 hPa 0,0 l/m 29,8 km/h W 11,6 C 8,6 C 16,6 km/h
18.11.2015 00:00 15,6 C 78 % 1016,4 hPa 0,0 l/m 7,8 km/h S-SW 11,8 C 14,8 C 4,3 km/h
18.11.2015 01:00 15,7 C 78 % 1016,4 hPa 0,0 l/m 18,8 km/h S-SW 11,9 C 11,0 C 10,4 km/h
18.11.2015 02:00 15,4 C 79 % 1016,6 hPa 0,0 l/m 33,0 km/h W-SW 11,8 C 7,8 C 18,4 km/h
18.11.2015 03:00 15,1 C 78 % 1017,0 hPa 0,0 l/m 40,2 km/h SW 11,3 C 6,4 C 22,3 km/h
18.11.2015 04:00 14,6 C 77 % 1017,1 hPa 0,0 l/m 16,8 km/h W-SW 10,6 C 10,1 C 9,4 km/h
18.11.2015 05:00 13,9 C 78 % 1017,9 hPa 0,0 l/m 22,0 km/h S-SW 10,1 C 7,8 C 12,2 km/h
18.11.2015 06:00 13,9 C 81 % 1018,3 hPa 0,0 l/m 20,7 km/h SW 10,7 C 8,1 C 11,5 km/h
18.11.2015 07:00 13,5 C 82 % 1019,3 hPa 0,0 l/m 20,1 km/h W-SW 10,5 C 7,8 C 11,2 km/h
18.11.2015 08:00 13,8 C 81 % 1020,2 hPa 0,0 l/m 16,2 km/h SW 10,6 C 9,3 C 9,0 km/h
18.11.2015 09:00 14,3 C 76 % 1021,0 hPa 0,0 l/m 24,0 km/h S 10,1 C 7,9 C 13,3 km/h
18.11.2015 10:00 18,6 C 64 % 1021,3 hPa 0,0 l/m 23,3 km/h SW 11,7 C 13,8 C 13,0 km/h
18.11.2015 11:00 18,6 C 57 % 1021,5 hPa 0,0 l/m 24,0 km/h W 9,9 C 13,7 C 13,3 km/h
18.11.2015 12:00 18,4 C 54 % 1020,9 hPa 0,0 l/m 36,9 km/h SW 8,9 C 11,7 C 20,5 km/h
18.11.2015 13:00 19,2 C 55 % 1020,1 hPa 0,0 l/m 25,3 km/h W-SW 9,9 C 14,3 C 14,0 km/h
18.11.2015 14:00 20,3 C 53 % 1019,3 hPa 0,0 l/m 24,0 km/h W 10,4 C 15,9 C 13,3 km/h
18.11.2015 15:00 18,9 C 52 % 1019,5 hPa 0,0 l/m 6,5 km/h W-SW 8,8 C 18,9 C 3,6 km/h
18.11.2015 16:00 15,2 C 59 % 1019,8 hPa 0,0 l/m 18,8 km/h W-SW 7,2 C 10,3 C 10,4 km/h
18.11.2015 17:00 13,1 C 67 % 1019,5 hPa 0,0 l/m 23,3 km/h S-SW 7,1 C 6,4 C 13,0 km/h
18.11.2015 18:00 13,3 C 69 % 1020,1 hPa 0,0 l/m 21,4 km/h W-SW 7,7 C 7,2 C 11,9 km/h
18.11.2015 19:00 13,3 C 70 % 1019,7 hPa 0,0 l/m 1,9 km/h SW 7,9 C 13,3 C 1,1 km/h
18.11.2015 20:00 12,9 C 71 % 1020,1 hPa 0,0 l/m 22,0 km/h S-SW 7,8 C 6,5 C 12,2 km/h
18.11.2015 21:00 12,9 C 69 % 1020,3 hPa 0,0 l/m 12,3 km/h S-SW 7,4 C 9,7 C 6,8 km/h
18.11.2015 22:00 13,6 C 68 % 1020,3 hPa 0,0 l/m 25,9 km/h W 7,8 C 6,5 C 14,4 km/h
18.11.2015 23:00 14,3 C 66 % 1020,2 hPa 0,0 l/m 11,0 km/h SW 8,0 C 11,9 C 6,1 km/h
19.11.2015 00:00 14,6 C 66 % 1019,3 hPa 0,0 l/m 13,0 km/h SW 8,3 C 11,4 C 7,2 km/h
19.11.2015 01:00 15,2 C 66 % 1019,0 hPa 0,0 l/m 18,8 km/h SW 8,9 C 10,3 C 10,4 km/h
19.11.2015 02:00 14,4 C 71 % 1019,1 hPa 0,0 l/m 18,1 km/h W-SW 9,2 C 9,5 C 10,1 km/h
19.11.2015 03:00 13,6 C 79 % 1019,1 hPa 0,0 l/m 22,7 km/h S-SW 10,0 C 7,2 C 12,6 km/h
19.11.2015 04:00 13,3 C 80 % 1019,3 hPa 0,0 l/m 25,3 km/h W-SW 9,9 C 6,2 C 14,0 km/h
19.11.2015 05:00 13,1 C 81 % 1019,4 hPa 0,0 l/m 24,0 km/h SW 9,9 C 6,3 C 13,3 km/h
19.11.2015 06:00 13,4 C 81 % 1019,6 hPa 0,0 l/m 15,6 km/h W-SW 10,2 C 9,0 C 8,6 km/h
19.11.2015 07:00 13,3 C 79 % 1019,9 hPa 0,0 l/m 7,8 km/h SW 9,7 C 12,4 C 4,3 km/h
19.11.2015 08:00 13,4 C 77 % 1021,2 hPa 0,0 l/m 20,7 km/h W-SW 9,5 C 7,5 C 11,5 km/h
19.11.2015 09:00 13,7 C 74 % 1021,0 hPa 0,0 l/m 26,6 km/h W 9,2 C 6,5 C 14,8 km/h
19.11.2015 10:00 14,4 C 71 % 1021,0 hPa 0,0 l/m 38,9 km/h W 9,2 C 5,5 C 21,6 km/h
19.11.2015 11:00 15,4 C 68 % 1020,5 hPa 0,0 l/m 17,5 km/h W 9,5 C 10,9 C 9,7 km/h
19.11.2015 12:00 16,9 C 63 % 1019,9 hPa 0,0 l/m 27,9 km/h S-SW 9,8 C 10,7 C 15,5 km/h
19.11.2015 13:00 17,4 C 60 % 1019,0 hPa 0,0 l/m 34,3 km/h W-SW 9,6 C 10,5 C 19,1 km/h
19.11.2015 14:00 15,0 C 65 % 1018,6 hPa 0,0 l/m 21,4 km/h W-SW 8,5 C 9,4 C 11,9 km/h
19.11.2015 15:00 14,3 C 72 % 1018,3 hPa 0,0 l/m 18,1 km/h S-SW 9,3 C 9,4 C 10,1 km/h
19.11.2015 16:00 14,6 C 69 % 1017,5 hPa 0,0 l/m 22,7 km/h W-NW 9,0 C 8,6 C 12,6 km/h
19.11.2015 17:00 14,9 C 69 % 1016,7 hPa 0,0 l/m 18,8 km/h SW 9,3 C 9,9 C 10,4 km/h
19.11.2015 18:00 14,9 C 75 % 1016,4 hPa 0,0 l/m 38,9 km/h W-SW 10,5 C 6,3 C 21,6 km/h
19.11.2015 19:00 15,5 C 74 % 1015,9 hPa 0,0 l/m 24,6 km/h S-SW 10,9 C 9,4 C 13,7 km/h
19.11.2015 20:00 15,9 C 74 % 1015,8 hPa 0,0 l/m 19,4 km/h W-SW 11,3 C 11,1 C 10,8 km/h
19.11.2015 21:00 16,1 C 73 % 1015,5 hPa 0,0 l/m 27,9 km/h W-SW 11,3 C 9,6 C 15,5 km/h
19.11.2015 22:00 15,6 C 76 % 1015,4 hPa 0,0 l/m 20,1 km/h S 11,4 C 10,5 C 11,2 km/h
19.11.2015 23:00 15,5 C 78 % 1014,8 hPa 0,0 l/m 25,9 km/h W-SW 11,7 C 9,1 C 14,4 km/h
20.11.2015 00:00 15,2 C 80 % 1014,4 hPa 0,0 l/m 30,5 km/h W-SW 11,8 C 7,9 C 16,9 km/h
20.11.2015 01:00 15,1 C 80 % 1013,9 hPa 0,0 l/m 44,1 km/h SW 11,7 C 6,0 C 24,5 km/h
20.11.2015 02:00 15,1 C 78 % 1013,4 hPa 0,0 l/m 45,4 km/h SW 11,3 C 5,9 C 25,2 km/h
20.11.2015 03:00 15,1 C 76 % 1013,2 hPa 0,0 l/m 43,4 km/h SW 10,9 C 6,1 C 24,1 km/h
20.11.2015 04:00 13,9 C 79 % 1012,9 hPa 0,0 l/m 35,0 km/h W-SW 10,3 C 5,3 C 19,4 km/h
20.11.2015 05:00 12,6 C 87 % 1012,3 hPa 0,0 l/m 19,4 km/h S 10,5 C 6,8 C 10,8 km/h
20.11.2015 06:00 12,6 C 87 % 1011,2 hPa 0,4 l/m 21,4 km/h S-SW 10,5 C 6,3 C 11,9 km/h
20.11.2015 07:00 12,8 C 87 % 1010,5 hPa 0,4 l/m 33,0 km/h SW 10,7 C 4,1 C 18,4 km/h
20.11.2015 08:00 12,9 C 87 % 1009,6 hPa 0,0 l/m 31,8 km/h S 10,8 C 4,4 C 17,6 km/h
20.11.2015 09:00 12,4 C 87 % 1008,7 hPa 0,4 l/m 13,6 km/h S 10,3 C 8,6 C 7,6 km/h
20.11.2015 10:00 12,4 C 87 % 1007,3 hPa 0,4 l/m 22,7 km/h W 10,3 C 5,6 C 12,6 km/h
20.11.2015 11:00 12,6 C 86 % 1005,4 hPa 0,8 l/m 19,4 km/h W-NW 10,3 C 6,8 C 10,8 km/h
20.11.2015 12:00 13,1 C 83 % 1003,7 hPa 1,7 l/m 16,8 km/h W 10,3 C 8,3 C 9,4 km/h
20.11.2015 13:00 13,2 C 80 % 1001,8 hPa 5,4 l/m 24,6 km/h W-NW 9,8 C 6,3 C 13,7 km/h
20.11.2015 14:00 10,4 C 85 % 1001,2 hPa 7,5 l/m 4,5 km/h S 8,0 C 10,4 C 2,5 km/h
20.11.2015 15:00 10,0 C 85 % 999,8 hPa 3,3 l/m 0,0 km/h N 7,6 C 10,0 C 0,0 km/h
20.11.2015 16:00 11,1 C 81 % 998,1 hPa 5,4 l/m 5,8 km/h N-NW 8,0 C 11,1 C 3,2 km/h
20.11.2015 17:00 10,9 C 81 % 998,8 hPa 8,7 l/m 0,0 km/h N 7,8 C 10,9 C 0,0 km/h
20.11.2015 18:00 8,3 C 84 % 1000,2 hPa 2,9 l/m 0,0 km/h NO 5,8 C 8,3 C 0,0 km/h
20.11.2015 19:00 7,3 C 85 % 1001,0 hPa 2,1 l/m 0,0 km/h N-NO 4,9 C 7,3 C 0,0 km/h
20.11.2015 20:00 6,4 C 86 % 1001,9 hPa 2,1 l/m 0,0 km/h S-SO 4,2 C 6,4 C 0,0 km/h
20.11.2015 21:00 6,2 C 86 % 1001,5 hPa 0,4 l/m 5,2 km/h W 4,0 C 6,2 C 2,9 km/h
20.11.2015 22:00 6,3 C 85 % 1001,7 hPa 0,8 l/m 0,0 km/h W 4,0 C 6,3 C 0,0 km/h
20.11.2015 23:00 6,1 C 85 % 1002,0 hPa 1,7 l/m 0,0 km/h S-SO 3,8 C 6,1 C 0,0 km/h
21.11.2015 00:00 5,9 C 84 % 1001,7 hPa 0,0 l/m 0,0 km/h SO 3,4 C 5,9 C 0,0 km/h
21.11.2015 01:00 5,8 C 84 % 1000,9 hPa 0,0 l/m 0,0 km/h SO 3,3 C 5,8 C 0,0 km/h
21.11.2015 02:00 4,6 C 85 % 1000,4 hPa 0,0 l/m 0,0 km/h SO 2,3 C 4,6 C 0,0 km/h
21.11.2015 03:00 3,6 C 85 % 999,3 hPa 0,0 l/m 0,0 km/h SO 1,3 C 3,6 C 0,0 km/h
21.11.2015 04:00 2,6 C 86 % 998,8 hPa 0,0 l/m 0,0 km/h SO 0,5 C 2,6 C 0,0 km/h
21.11.2015 05:00 1,4 C 86 % 998,3 hPa 0,0 l/m 0,0 km/h SO -0,7 C 1,4 C 0,0 km/h
21.11.2015 06:00 0,9 C 86 % 997,8 hPa 0,0 l/m 0,0 km/h SO -1,2 C 0,9 C 0,0 km/h
21.11.2015 07:00 1,2 C 85 % 997,7 hPa 0,0 l/m 0,0 km/h SO -1,0 C 1,2 C 0,0 km/h
21.11.2015 08:00 3,2 C 84 % 997,1 hPa 0,0 l/m 0,6 km/h S-SW 0,8 C 3,2 C 0,4 km/h
21.11.2015 09:00 5,3 C 85 % 996,7 hPa 0,0 l/m 20,7 km/h W-SW 3,0 C -3,1 C 11,5 km/h
21.11.2015 10:00 6,1 C 88 % 996,1 hPa 0,0 l/m 11,0 km/h W 4,3 C 2,6 C 6,1 km/h
21.11.2015 11:00 6,8 C 83 % 995,5 hPa 0,0 l/m 7,1 km/h SW 4,1 C 6,2 C 4,0 km/h
21.11.2015 12:00 7,1 C 82 % 994,4 hPa 0,0 l/m 16,2 km/h N-NO 4,2 C 1,1 C 9,0 km/h
21.11.2015 13:00 2,6 C 86 % 995,3 hPa 0,8 l/m 0,0 km/h SO 0,5 C 2,6 C 0,0 km/h
21.11.2015 14:00 3,0 C 89 % 995,8 hPa 0,8 l/m 1,9 km/h W-SW 1,4 C 3,0 C 1,1 km/h
21.11.2015 15:00 2,3 C 89 % 997,0 hPa 1,7 l/m 0,0 km/h S-SO 0,7 C 2,3 C 0,0 km/h
21.11.2015 16:00 2,3 C 89 % 997,6 hPa 0,0 l/m 1,3 km/h W-SW 0,7 C 2,3 C 0,7 km/h
21.11.2015 17:00 2,3 C 89 % 998,1 hPa 0,0 l/m 2,6 km/h SW 0,7 C 2,3 C 1,4 km/h
21.11.2015 18:00 2,3 C 89 % 998,4 hPa 0,0 l/m 13,6 km/h S-SO 0,7 C -3,4 C 7,6 km/h
21.11.2015 19:00 2,3 C 88 % 998,1 hPa 0,0 l/m 0,0 km/h SW 0,5 C 2,3 C 0,0 km/h
21.11.2015 20:00 2,2 C 88 % 998,1 hPa 0,0 l/m 21,4 km/h S-SW 0,4 C -7,4 C 11,9 km/h
21.11.2015 21:00 1,9 C 88 % 998,1 hPa 0,0 l/m 16,2 km/h SW 0,1 C -5,3 C 9,0 km/h
21.11.2015 22:00 2,7 C 86 % 998,3 hPa 0,0 l/m 26,6 km/h W-NW 0,6 C -8,6 C 14,8 km/h
21.11.2015 23:00 2,6 C 87 % 998,8 hPa 0,0 l/m 21,4 km/h W 0,7 C -6,9 C 11,9 km/h
22.11.2015 00:00 2,4 C 88 % 999,6 hPa 0,0 l/m 13,6 km/h W-SW 0,6 C -3,3 C 7,6 km/h
22.11.2015 01:00 2,4 C 89 % 999,7 hPa 0,0 l/m 13,0 km/h W-NW 0,8 C -2,9 C 7,2 km/h
22.11.2015 02:00 2,3 C 89 % 1000,4 hPa 0,4 l/m 0,0 km/h NW 0,7 C 2,3 C 0,0 km/h
22.11.2015 03:00 1,9 C 89 % 1000,8 hPa 0,0 l/m 0,0 km/h NW 0,3 C 1,9 C 0,0 km/h
22.11.2015 04:00 1,6 C 89 % 1001,4 hPa 0,4 l/m 0,0 km/h NW -0,0 C 1,6 C 0,0 km/h
22.11.2015 05:00 1,4 C 89 % 1001,7 hPa 0,0 l/m 0,0 km/h S-SW -0,2 C 1,4 C 0,0 km/h
22.11.2015 06:00 1,1 C 88 % 1002,6 hPa 0,4 l/m 0,0 km/h S-SW -0,7 C 1,1 C 0,0 km/h
22.11.2015 07:00 1,3 C 88 % 1003,7 hPa 0,4 l/m 0,0 km/h S-SW -0,5 C 1,3 C 0,0 km/h
22.11.2015 08:00 1,6 C 88 % 1004,7 hPa 0,0 l/m 0,0 km/h S-SO -0,2 C 1,6 C 0,0 km/h
22.11.2015 09:00 2,3 C 88 % 1005,6 hPa 0,0 l/m 0,0 km/h SO 0,5 C 2,3 C 0,0 km/h
22.11.2015 10:00 3,6 C 88 % 1006,2 hPa 0,4 l/m 0,0 km/h SO 1,8 C 3,6 C 0,0 km/h
22.11.2015 11:00 5,1 C 85 % 1006,7 hPa 0,0 l/m 0,0 km/h S 2,8 C 5,1 C 0,0 km/h
22.11.2015 12:00 7,2 C 81 % 1007,0 hPa 0,0 l/m 0,0 km/h W 4,2 C 7,2 C 0,0 km/h
22.11.2015 13:00 6,4 C 75 % 1007,2 hPa 0,0 l/m 1,9 km/h O-SO 2,3 C 6,4 C 1,1 km/h
22.11.2015 14:00 3,0 C 83 % 1007,9 hPa 0,0 l/m 1,9 km/h SO 0,4 C 3,0 C 1,1 km/h
22.11.2015 15:00 4,1 C 80 % 1008,7 hPa 0,0 l/m 0,6 km/h NO 1,0 C 4,1 C 0,4 km/h
22.11.2015 16:00 2,4 C 84 % 1009,4 hPa 0,0 l/m 0,0 km/h O-SO -0,0 C 2,4 C 0,0 km/h
22.11.2015 17:00 0,5 C 87 % 1009,7 hPa 0,0 l/m 0,0 km/h O-SO -1,4 C 0,5 C 0,0 km/h
22.11.2015 18:00 -0,4 C 88 % 1010,2 hPa 0,0 l/m 0,0 km/h O-SO -2,1 C -0,4 C 0,0 km/h
22.11.2015 19:00 -0,5 C 89 % 1010,8 hPa 0,0 l/m 0,0 km/h O-SO -2,1 C -0,5 C 0,0 km/h
22.11.2015 20:00 0,1 C 89 % 1011,4 hPa 0,0 l/m 0,0 km/h O-SO -1,5 C 0,1 C 0,0 km/h
22.11.2015 21:00 0,8 C 89 % 1012,3 hPa 0,0 l/m 0,0 km/h O-SO -0,8 C 0,8 C 0,0 km/h
22.11.2015 22:00 0,9 C 89 % 1012,7 hPa 0,0 l/m 0,0 km/h O-SO -0,7 C 0,9 C 0,0 km/h
22.11.2015 23:00 0,5 C 89 % 1013,1 hPa 0,0 l/m 0,0 km/h O -1,1 C 0,5 C 0,0 km/h
Min-Datum _ 22.11.15 16.11.15 21.11.15 - 16.11.15 - 22.11.15 21.11.15 16.11.15
_ Min-Zeit 19:42 12:42 12:42 - 01:42 - 18:42 22:42 01:42
Minimum _ -0,5 C 30 % 994,4 hPa - 0,0 km/h - -2,1 C -8,6 C 0,0 km/h
Max-Datum _ 16.11.15 21.11.15 18.11.15 20.11.15 20.11.15 - 18.11.15 18.11.15 20.11.15
_ Max-Zeit 11:42 14:42 11:42 17:42 02:42 - 01:42 15:42 02:42
Maximum _ 21,4 C 89 % 1021,5 hPa 8,7 l/m 45,4 km/h
SW
- 11,9 C 18,9 C 25,2 km/h
SW
Durchschnitt _ 10,4 C 77 % 1011,6 hPa #49,7 l/m 14,3 km/h W-SW 6,2 C 6,8 C 7,9 km/h
www.sexauwetter.de